sensor_id;sensor_type;location;lat;lon;timestamp;temperature;humidity
23560;DHT22;11958;50.836;4.438;2024-01-30T00:02:19;11.00;82.50
23560;DHT22;11958;50.836;4.438;2024-01-30T00:05:15;11.00;82.20
23560;DHT22;11958;50.836;4.438;2024-01-30T00:08:04;10.90;82.70
23560;DHT22;11958;50.836;4.438;2024-01-30T00:13:52;10.90;82.40
23560;DHT22;11958;50.836;4.438;2024-01-30T00:16:21;11.00;81.80
23560;DHT22;11958;50.836;4.438;2024-01-30T00:18:48;11.20;82.00
23560;DHT22;11958;50.836;4.438;2024-01-30T00:21:13;11.60;81.00
23560;DHT22;11958;50.836;4.438;2024-01-30T00:23:39;11.30;81.30
23560;DHT22;11958;50.836;4.438;2024-01-30T00:26:05;11.20;81.60
23560;DHT22;11958;50.836;4.438;2024-01-30T00:28:31;10.90;82.20
23560;DHT22;11958;50.836;4.438;2024-01-30T00:30:57;10.90;82.30
23560;DHT22;11958;50.836;4.438;2024-01-30T00:33:22;10.90;82.60
23560;DHT22;11958;50.836;4.438;2024-01-30T00:35:48;11.00;82.20
23560;DHT22;11958;50.836;4.438;2024-01-30T00:38:14;11.00;82.80
23560;DHT22;11958;50.836;4.438;2024-01-30T00:40:39;10.90;82.60
23560;DHT22;11958;50.836;4.438;2024-01-30T00:43:05;11.10;82.00
23560;DHT22;11958;50.836;4.438;2024-01-30T00:45:32;11.10;82.10
23560;DHT22;11958;50.836;4.438;2024-01-30T00:47:58;11.10;82.30
23560;DHT22;11958;50.836;4.438;2024-01-30T00:50:23;11.00;82.20
23560;DHT22;11958;50.836;4.438;2024-01-30T00:52:51;11.30;81.60
23560;DHT22;11958;50.836;4.438;2024-01-30T00:55:36;11.30;81.90
23560;DHT22;11958;50.836;4.438;2024-01-30T00:58:05;11.30;81.70
23560;DHT22;11958;50.836;4.438;2024-01-30T01:00:32;11.30;81.90
23560;DHT22;11958;50.836;4.438;2024-01-30T01:02:58;11.10;82.20
23560;DHT22;11958;50.836;4.438;2024-01-30T01:05:24;11.40;82.00
23560;DHT22;11958;50.836;4.438;2024-01-30T01:07:50;11.40;81.70
23560;DHT22;11958;50.836;4.438;2024-01-30T01:10:19;11.60;81.60
23560;DHT22;11958;50.836;4.438;2024-01-30T01:12:45;11.50;81.60
23560;DHT22;11958;50.836;4.438;2024-01-30T01:15:11;11.40;82.00
23560;DHT22;11958;50.836;4.438;2024-01-30T01:17:38;11.50;81.70
23560;DHT22;11958;50.836;4.438;2024-01-30T01:22:39;11.80;81.20
23560;DHT22;11958;50.836;4.438;2024-01-30T01:27:43;11.90;81.10
23560;DHT22;11958;50.836;4.438;2024-01-30T01:30:39;12.00;80.70
23560;DHT22;11958;50.836;4.438;2024-01-30T01:33:47;11.60;81.50
23560;DHT22;11958;50.836;4.438;2024-01-30T01:36:13;11.50;82.10
23560;DHT22;11958;50.836;4.438;2024-01-30T01:38:39;12.10;81.50
23560;DHT22;11958;50.836;4.438;2024-01-30T01:41:05;11.80;81.40
23560;DHT22;11958;50.836;4.438;2024-01-30T01:43:30;11.70;81.90
23560;DHT22;11958;50.836;4.438;2024-01-30T01:45:56;11.60;81.90
23560;DHT22;11958;50.836;4.438;2024-01-30T01:48:22;12.20;81.30
23560;DHT22;11958;50.836;4.438;2024-01-30T01:50:48;12.00;81.40
23560;DHT22;11958;50.836;4.438;2024-01-30T01:53:15;11.90;81.60
23560;DHT22;11958;50.836;4.438;2024-01-30T01:55:41;11.80;81.80
23560;DHT22;11958;50.836;4.438;2024-01-30T01:58:07;11.70;82.50
23560;DHT22;11958;50.836;4.438;2024-01-30T02:00:35;11.90;81.80
23560;DHT22;11958;50.836;4.438;2024-01-30T02:03:02;12.20;80.90
23560;DHT22;11958;50.836;4.438;2024-01-30T02:05:30;12.10;81.10
23560;DHT22;11958;50.836;4.438;2024-01-30T02:07:56;12.00;81.30
23560;DHT22;11958;50.836;4.438;2024-01-30T02:10:21;12.10;81.30
23560;DHT22;11958;50.836;4.438;2024-01-30T02:12:48;11.90;81.70
23560;DHT22;11958;50.836;4.438;2024-01-30T02:15:14;12.00;81.80
23560;DHT22;11958;50.836;4.438;2024-01-30T02:17:40;12.10;81.70
23560;DHT22;11958;50.836;4.438;2024-01-30T02:20:06;12.10;81.30
23560;DHT22;11958;50.836;4.438;2024-01-30T02:22:33;12.30;80.90
23560;DHT22;11958;50.836;4.438;2024-01-30T02:25:00;12.00;81.00
23560;DHT22;11958;50.836;4.438;2024-01-30T02:27:26;12.00;81.60
23560;DHT22;11958;50.836;4.438;2024-01-30T02:29:52;11.70;82.50
23560;DHT22;11958;50.836;4.438;2024-01-30T02:32:17;11.70;82.60
23560;DHT22;11958;50.836;4.438;2024-01-30T02:34:43;12.00;82.70
23560;DHT22;11958;50.836;4.438;2024-01-30T02:37:09;12.00;82.10
23560;DHT22;11958;50.836;4.438;2024-01-30T02:39:34;12.00;82.90
23560;DHT22;11958;50.836;4.438;2024-01-30T02:42:00;12.00;82.20
23560;DHT22;11958;50.836;4.438;2024-01-30T02:44:26;12.30;81.60
23560;DHT22;11958;50.836;4.438;2024-01-30T02:46:51;12.00;81.70
23560;DHT22;11958;50.836;4.438;2024-01-30T02:49:22;12.00;82.40
23560;DHT22;11958;50.836;4.438;2024-01-30T02:51:53;12.20;81.50
23560;DHT22;11958;50.836;4.438;2024-01-30T02:54:20;12.10;82.10
23560;DHT22;11958;50.836;4.438;2024-01-30T02:56:45;12.00;82.50
23560;DHT22;11958;50.836;4.438;2024-01-30T02:59:11;12.10;81.80
23560;DHT22;11958;50.836;4.438;2024-01-30T03:01:43;11.90;82.70
23560;DHT22;11958;50.836;4.438;2024-01-30T03:04:09;12.10;82.20
23560;DHT22;11958;50.836;4.438;2024-01-30T03:06:36;12.00;82.50
23560;DHT22;11958;50.836;4.438;2024-01-30T03:09:01;11.90;82.90
23560;DHT22;11958;50.836;4.438;2024-01-30T03:11:27;12.10;82.60
23560;DHT22;11958;50.836;4.438;2024-01-30T03:13:53;12.30;82.10
23560;DHT22;11958;50.836;4.438;2024-01-30T03:16:18;11.90;82.20
23560;DHT22;11958;50.836;4.438;2024-01-30T03:18:44;12.00;83.30
23560;DHT22;11958;50.836;4.438;2024-01-30T03:21:10;12.10;82.40
23560;DHT22;11958;50.836;4.438;2024-01-30T03:23:35;11.80;83.30
23560;DHT22;11958;50.836;4.438;2024-01-30T03:26:01;11.80;83.50
23560;DHT22;11958;50.836;4.438;2024-01-30T03:28:27;12.40;81.90
23560;DHT22;11958;50.836;4.438;2024-01-30T03:30:52;12.40;81.40
23560;DHT22;11958;50.836;4.438;2024-01-30T03:33:18;12.40;81.80
23560;DHT22;11958;50.836;4.438;2024-01-30T03:35:43;12.00;82.70
23560;DHT22;11958;50.836;4.438;2024-01-30T03:38:09;12.00;83.20
23560;DHT22;11958;50.836;4.438;2024-01-30T03:40:35;11.90;83.10
23560;DHT22;11958;50.836;4.438;2024-01-30T03:43:00;12.20;82.10
23560;DHT22;11958;50.836;4.438;2024-01-30T03:45:26;11.90;82.90
23560;DHT22;11958;50.836;4.438;2024-01-30T03:47:55;12.10;82.50
23560;DHT22;11958;50.836;4.438;2024-01-30T03:50:20;12.10;82.60
23560;DHT22;11958;50.836;4.438;2024-01-30T03:52:46;11.90;82.40
23560;DHT22;11958;50.836;4.438;2024-01-30T03:55:12;11.90;83.00
23560;DHT22;11958;50.836;4.438;2024-01-30T03:57:37;12.20;82.40
23560;DHT22;11958;50.836;4.438;2024-01-30T04:02:38;12.30;81.70
23560;DHT22;11958;50.836;4.438;2024-01-30T04:05:04;12.30;81.20
23560;DHT22;11958;50.836;4.438;2024-01-30T04:07:30;12.10;82.20
23560;DHT22;11958;50.836;4.438;2024-01-30T04:09:55;12.00;82.10
23560;DHT22;11958;50.836;4.438;2024-01-30T04:12:21;12.20;81.90
23560;DHT22;11958;50.836;4.438;2024-01-30T04:14:47;12.10;81.60
23560;DHT22;11958;50.836;4.438;2024-01-30T04:17:12;12.00;82.50
23560;DHT22;11958;50.836;4.438;2024-01-30T04:19:38;11.60;83.10
23560;DHT22;11958;50.836;4.438;2024-01-30T04:22:04;11.70;83.60
23560;DHT22;11958;50.836;4.438;2024-01-30T04:24:30;11.80;83.00
23560;DHT22;11958;50.836;4.438;2024-01-30T04:26:55;12.00;83.00
23560;DHT22;11958;50.836;4.438;2024-01-30T04:29:21;12.00;82.20
23560;DHT22;11958;50.836;4.438;2024-01-30T04:31:48;12.00;82.30
23560;DHT22;11958;50.836;4.438;2024-01-30T04:34:13;12.00;82.30
23560;DHT22;11958;50.836;4.438;2024-01-30T04:36:40;12.00;82.40
23560;DHT22;11958;50.836;4.438;2024-01-30T04:39:08;11.90;82.50
23560;DHT22;11958;50.836;4.438;2024-01-30T04:41:34;11.80;82.70
23560;DHT22;11958;50.836;4.438;2024-01-30T04:43:59;11.70;82.60
23560;DHT22;11958;50.836;4.438;2024-01-30T04:46:25;11.70;83.20
23560;DHT22;11958;50.836;4.438;2024-01-30T04:48:51;11.90;83.10
23560;DHT22;11958;50.836;4.438;2024-01-30T04:51:16;12.20;82.30
23560;DHT22;11958;50.836;4.438;2024-01-30T04:53:42;12.10;81.60
23560;DHT22;11958;50.836;4.438;2024-01-30T04:56:08;11.90;82.40
23560;DHT22;11958;50.836;4.438;2024-01-30T04:58:33;12.00;82.30
23560;DHT22;11958;50.836;4.438;2024-01-30T05:00:59;11.80;82.70
23560;DHT22;11958;50.836;4.438;2024-01-30T05:03:25;11.90;83.10
23560;DHT22;11958;50.836;4.438;2024-01-30T05:05:50;12.20;82.30
23560;DHT22;11958;50.836;4.438;2024-01-30T05:08:16;12.10;82.40
23560;DHT22;11958;50.836;4.438;2024-01-30T05:10:42;11.90;82.60
23560;DHT22;11958;50.836;4.438;2024-01-30T05:13:07;11.90;82.40
23560;DHT22;11958;50.836;4.438;2024-01-30T05:15:33;12.00;82.10
23560;DHT22;11958;50.836;4.438;2024-01-30T05:17:59;12.10;82.10
23560;DHT22;11958;50.836;4.438;2024-01-30T05:20:24;12.00;82.70
23560;DHT22;11958;50.836;4.438;2024-01-30T05:22:53;11.80;82.70
23560;DHT22;11958;50.836;4.438;2024-01-30T05:25:19;11.90;83.10
23560;DHT22;11958;50.836;4.438;2024-01-30T05:27:44;11.60;83.60
23560;DHT22;11958;50.836;4.438;2024-01-30T05:30:10;11.60;83.40
23560;DHT22;11958;50.836;4.438;2024-01-30T05:32:36;11.90;83.00
23560;DHT22;11958;50.836;4.438;2024-01-30T05:35:02;11.90;82.70
23560;DHT22;11958;50.836;4.438;2024-01-30T05:37:28;11.90;82.20
23560;DHT22;11958;50.836;4.438;2024-01-30T05:39:54;11.50;83.30
23560;DHT22;11958;50.836;4.438;2024-01-30T05:42:19;11.50;83.70
23560;DHT22;11958;50.836;4.438;2024-01-30T05:44:45;11.50;83.90
23560;DHT22;11958;50.836;4.438;2024-01-30T05:47:11;12.00;83.10
23560;DHT22;11958;50.836;4.438;2024-01-30T05:49:36;11.90;83.00
23560;DHT22;11958;50.836;4.438;2024-01-30T05:52:03;11.70;83.10
23560;DHT22;11958;50.836;4.438;2024-01-30T05:54:29;11.60;84.00
23560;DHT22;11958;50.836;4.438;2024-01-30T05:56:55;11.80;83.30
23560;DHT22;11958;50.836;4.438;2024-01-30T05:59:20;11.70;83.40
23560;DHT22;11958;50.836;4.438;2024-01-30T06:17:15;11.40;83.80
23560;DHT22;11958;50.836;4.438;2024-01-30T06:20:01;11.60;83.50
23560;DHT22;11958;50.836;4.438;2024-01-30T06:22:27;11.20;84.30
23560;DHT22;11958;50.836;4.438;2024-01-30T06:24:53;11.40;84.40
23560;DHT22;11958;50.836;4.438;2024-01-30T06:27:18;11.50;83.80
23560;DHT22;11958;50.836;4.438;2024-01-30T06:29:44;12.00;83.10
23560;DHT22;11958;50.836;4.438;2024-01-30T06:32:10;11.40;83.50
23560;DHT22;11958;50.836;4.438;2024-01-30T06:34:35;11.00;84.30
23560;DHT22;11958;50.836;4.438;2024-01-30T06:37:01;11.20;84.50
23560;DHT22;11958;50.836;4.438;2024-01-30T06:39:27;11.00;84.70
23560;DHT22;11958;50.836;4.438;2024-01-30T06:42:27;10.90;85.20
23560;DHT22;11958;50.836;4.438;2024-01-30T06:44:56;11.20;84.50
23560;DHT22;11958;50.836;4.438;2024-01-30T06:47:36;11.30;85.00
23560;DHT22;11958;50.836;4.438;2024-01-30T06:50:21;11.30;84.20
23560;DHT22;11958;50.836;4.438;2024-01-30T06:52:56;11.20;84.40
23560;DHT22;11958;50.836;4.438;2024-01-30T06:55:28;11.20;84.80
23560;DHT22;11958;50.836;4.438;2024-01-30T07:01:28;11.10;85.00
23560;DHT22;11958;50.836;4.438;2024-01-30T07:03:54;11.20;84.90
23560;DHT22;11958;50.836;4.438;2024-01-30T07:06:20;11.20;84.90
23560;DHT22;11958;50.836;4.438;2024-01-30T07:08:46;11.00;85.50
23560;DHT22;11958;50.836;4.438;2024-01-30T07:11:18;11.10;85.30
23560;DHT22;11958;50.836;4.438;2024-01-30T07:13:44;11.00;85.30
23560;DHT22;11958;50.836;4.438;2024-01-30T07:16:10;11.00;85.60
23560;DHT22;11958;50.836;4.438;2024-01-30T07:18:35;11.00;85.70
23560;DHT22;11958;50.836;4.438;2024-01-30T07:21:01;11.00;86.10
23560;DHT22;11958;50.836;4.438;2024-01-30T07:23:27;11.10;85.30
23560;DHT22;11958;50.836;4.438;2024-01-30T07:28:40;11.20;85.70
23560;DHT22;11958;50.836;4.438;2024-01-30T07:35:00;11.20;85.80
23560;DHT22;11958;50.836;4.438;2024-01-30T07:37:52;11.20;85.40
23560;DHT22;11958;50.836;4.438;2024-01-30T07:40:18;11.40;85.30
23560;DHT22;11958;50.836;4.438;2024-01-30T07:42:44;11.50;85.50
23560;DHT22;11958;50.836;4.438;2024-01-30T07:45:09;11.70;85.00
23560;DHT22;11958;50.836;4.438;2024-01-30T07:47:35;11.60;85.10
23560;DHT22;11958;50.836;4.438;2024-01-30T07:50:01;11.50;85.00
23560;DHT22;11958;50.836;4.438;2024-01-30T07:55:34;11.80;85.10
23560;DHT22;11958;50.836;4.438;2024-01-30T08:01:33;11.70;85.10
23560;DHT22;11958;50.836;4.438;2024-01-30T08:03:59;11.70;85.20
23560;DHT22;11958;50.836;4.438;2024-01-30T08:06:25;11.80;85.00
23560;DHT22;11958;50.836;4.438;2024-01-30T08:08:50;11.80;85.00
23560;DHT22;11958;50.836;4.438;2024-01-30T08:11:20;11.80;85.20
23560;DHT22;11958;50.836;4.438;2024-01-30T08:13:46;11.90;85.60
23560;DHT22;11958;50.836;4.438;2024-01-30T08:16:11;12.00;85.50
23560;DHT22;11958;50.836;4.438;2024-01-30T08:18:37;12.00;84.90
23560;DHT22;11958;50.836;4.438;2024-01-30T08:49:44;12.30;84.30
23560;DHT22;11958;50.836;4.438;2024-01-30T08:52:46;12.20;84.90
23560;DHT22;11958;50.836;4.438;2024-01-30T08:58:46;12.30;85.10
23560;DHT22;11958;50.836;4.438;2024-01-30T09:01:12;12.10;85.40
23560;DHT22;11958;50.836;4.438;2024-01-30T09:03:38;12.10;85.60
23560;DHT22;11958;50.836;4.438;2024-01-30T09:06:10;12.20;85.40
23560;DHT22;11958;50.836;4.438;2024-01-30T09:08:36;12.10;85.50
23560;DHT22;11958;50.836;4.438;2024-01-30T09:11:09;12.00;85.90
23560;DHT22;11958;50.836;4.438;2024-01-30T09:13:34;12.10;85.50
23560;DHT22;11958;50.836;4.438;2024-01-30T09:16:00;12.10;85.50
23560;DHT22;11958;50.836;4.438;2024-01-30T09:18:26;12.00;86.20
23560;DHT22;11958;50.836;4.438;2024-01-30T09:20:52;12.10;86.40
23560;DHT22;11958;50.836;4.438;2024-01-30T09:23:17;12.30;85.00
23560;DHT22;11958;50.836;4.438;2024-01-30T09:25:45;12.10;85.50
23560;DHT22;11958;50.836;4.438;2024-01-30T09:28:10;12.10;85.60
23560;DHT22;11958;50.836;4.438;2024-01-30T09:30:36;12.30;85.60
23560;DHT22;11958;50.836;4.438;2024-01-30T09:33:02;12.10;85.70
23560;DHT22;11958;50.836;4.438;2024-01-30T09:35:28;12.20;86.00
23560;DHT22;11958;50.836;4.438;2024-01-30T09:37:55;12.30;85.80
23560;DHT22;11958;50.836;4.438;2024-01-30T09:40:21;12.20;85.80
23560;DHT22;11958;50.836;4.438;2024-01-30T09:42:47;12.30;86.00
23560;DHT22;11958;50.836;4.438;2024-01-30T09:45:17;12.20;86.30
23560;DHT22;11958;50.836;4.438;2024-01-30T09:47:44;12.20;86.00
23560;DHT22;11958;50.836;4.438;2024-01-30T09:50:12;12.20;86.30
23560;DHT22;11958;50.836;4.438;2024-01-30T09:52:39;12.20;86.70
23560;DHT22;11958;50.836;4.438;2024-01-30T09:55:06;12.30;86.50
23560;DHT22;11958;50.836;4.438;2024-01-30T09:57:32;12.10;87.20
23560;DHT22;11958;50.836;4.438;2024-01-30T09:59:58;11.90;87.50
23560;DHT22;11958;50.836;4.438;2024-01-30T10:02:24;12.00;87.80
23560;DHT22;11958;50.836;4.438;2024-01-30T10:14:04;12.10;88.00
23560;DHT22;11958;50.836;4.438;2024-01-30T10:16:30;12.00;87.90
23560;DHT22;11958;50.836;4.438;2024-01-30T10:18:56;11.90;88.30
23560;DHT22;11958;50.836;4.438;2024-01-30T10:21:22;12.00;88.20
23560;DHT22;11958;50.836;4.438;2024-01-30T10:23:47;12.00;88.10
23560;DHT22;11958;50.836;4.438;2024-01-30T10:26:16;11.90;87.70
23560;DHT22;11958;50.836;4.438;2024-01-30T10:28:42;11.90;87.80
23560;DHT22;11958;50.836;4.438;2024-01-30T10:31:08;11.70;88.00
23560;DHT22;11958;50.836;4.438;2024-01-30T10:33:34;11.80;88.20
23560;DHT22;11958;50.836;4.438;2024-01-30T10:36:01;11.90;87.90
23560;DHT22;11958;50.836;4.438;2024-01-30T10:38:32;11.70;88.30
23560;DHT22;11958;50.836;4.438;2024-01-30T10:40:59;11.80;88.20
23560;DHT22;11958;50.836;4.438;2024-01-30T10:48:59;11.60;88.10
23560;DHT22;11958;50.836;4.438;2024-01-30T10:55:06;11.60;87.50
23560;DHT22;11958;50.836;4.438;2024-01-30T10:57:36;11.90;87.30
23560;DHT22;11958;50.836;4.438;2024-01-30T11:00:08;11.80;86.60
23560;DHT22;11958;50.836;4.438;2024-01-30T11:02:40;11.80;86.90
23560;DHT22;11958;50.836;4.438;2024-01-30T11:05:07;11.70;86.50
23560;DHT22;11958;50.836;4.438;2024-01-30T11:07:34;11.70;86.90
23560;DHT22;11958;50.836;4.438;2024-01-30T11:12:30;12.00;86.00
23560;DHT22;11958;50.836;4.438;2024-01-30T11:15:13;11.90;86.00
23560;DHT22;11958;50.836;4.438;2024-01-30T11:20:30;11.80;85.20
23560;DHT22;11958;50.836;4.438;2024-01-30T11:22:57;11.60;85.40
23560;DHT22;11958;50.836;4.438;2024-01-30T11:25:24;11.50;85.90
23560;DHT22;11958;50.836;4.438;2024-01-30T11:27:52;11.40;84.80
23560;DHT22;11958;50.836;4.438;2024-01-30T11:30:26;11.40;85.40
23560;DHT22;11958;50.836;4.438;2024-01-30T11:38:49;11.40;85.00
23560;DHT22;11958;50.836;4.438;2024-01-30T12:23:39;10.90;77.30
23560;DHT22;11958;50.836;4.438;2024-01-30T12:33:09;11.10;75.50
23560;DHT22;11958;50.836;4.438;2024-01-30T12:35:35;11.90;74.20
23560;DHT22;11958;50.836;4.438;2024-01-30T12:38:02;12.40;68.60
23560;DHT22;11958;50.836;4.438;2024-01-30T12:40:28;12.70;65.80
23560;DHT22;11958;50.836;4.438;2024-01-30T12:42:54;13.20;64.20
23560;DHT22;11958;50.836;4.438;2024-01-30T12:45:19;13.20;64.10
23560;DHT22;11958;50.836;4.438;2024-01-30T12:47:48;13.30;62.80
23560;DHT22;11958;50.836;4.438;2024-01-30T12:50:14;13.20;62.00
23560;DHT22;11958;50.836;4.438;2024-01-30T12:52:53;13.00;63.10
23560;DHT22;11958;50.836;4.438;2024-01-30T12:55:19;12.50;66.70
23560;DHT22;11958;50.836;4.438;2024-01-30T13:01:06;12.70;66.40
23560;DHT22;11958;50.836;4.438;2024-01-30T13:03:32;12.60;67.50
23560;DHT22;11958;50.836;4.438;2024-01-30T13:05:58;12.40;66.70
23560;DHT22;11958;50.836;4.438;2024-01-30T13:08:24;12.00;68.90
23560;DHT22;11958;50.836;4.438;2024-01-30T13:10:50;12.10;70.00
23560;DHT22;11958;50.836;4.438;2024-01-30T13:13:15;11.80;70.20
23560;DHT22;11958;50.836;4.438;2024-01-30T13:15:41;12.30;69.60
23560;DHT22;11958;50.836;4.438;2024-01-30T13:18:07;12.40;68.40
23560;DHT22;11958;50.836;4.438;2024-01-30T13:20:38;13.30;64.20
23560;DHT22;11958;50.836;4.438;2024-01-30T13:23:03;13.40;64.40
23560;DHT22;11958;50.836;4.438;2024-01-30T13:25:29;13.20;64.70
23560;DHT22;11958;50.836;4.438;2024-01-30T13:27:55;13.20;65.50
23560;DHT22;11958;50.836;4.438;2024-01-30T13:30:20;12.50;67.40
23560;DHT22;11958;50.836;4.438;2024-01-30T13:32:46;12.20;68.80
23560;DHT22;11958;50.836;4.438;2024-01-30T13:35:12;12.10;68.20
23560;DHT22;11958;50.836;4.438;2024-01-30T13:37:37;11.60;71.10
23560;DHT22;11958;50.836;4.438;2024-01-30T13:40:06;11.80;70.70
23560;DHT22;11958;50.836;4.438;2024-01-30T13:42:32;11.80;71.20
23560;DHT22;11958;50.836;4.438;2024-01-30T13:44:58;11.70;70.70
23560;DHT22;11958;50.836;4.438;2024-01-30T13:47:24;11.40;69.70
23560;DHT22;11958;50.836;4.438;2024-01-30T13:49:52;11.50;72.10
23560;DHT22;11958;50.836;4.438;2024-01-30T13:52:18;11.60;70.50
23560;DHT22;11958;50.836;4.438;2024-01-30T13:54:44;11.50;69.70
23560;DHT22;11958;50.836;4.438;2024-01-30T13:57:15;11.70;68.70
23560;DHT22;11958;50.836;4.438;2024-01-30T13:59:44;11.60;68.90
23560;DHT22;11958;50.836;4.438;2024-01-30T14:02:10;11.30;69.00
23560;DHT22;11958;50.836;4.438;2024-01-30T14:04:36;11.40;70.90
23560;DHT22;11958;50.836;4.438;2024-01-30T14:07:03;11.00;70.60
23560;DHT22;11958;50.836;4.438;2024-01-30T14:09:29;11.00;71.90
23560;DHT22;11958;50.836;4.438;2024-01-30T14:11:55;10.90;71.50
23560;DHT22;11958;50.836;4.438;2024-01-30T14:14:20;10.80;73.20
23560;DHT22;11958;50.836;4.438;2024-01-30T14:20:29;10.80;73.10
23560;DHT22;11958;50.836;4.438;2024-01-30T14:26:37;11.00;71.00
23560;DHT22;11958;50.836;4.438;2024-01-30T14:37:46;10.80;72.00
23560;DHT22;11958;50.836;4.438;2024-01-30T14:40:11;10.70;71.30
23560;DHT22;11958;50.836;4.438;2024-01-30T14:42:37;10.70;72.20
23560;DHT22;11958;50.836;4.438;2024-01-30T14:45:04;10.70;72.60
23560;DHT22;11958;50.836;4.438;2024-01-30T14:47:30;10.70;72.30
23560;DHT22;11958;50.836;4.438;2024-01-30T14:49:57;10.90;72.90
23560;DHT22;11958;50.836;4.438;2024-01-30T15:05:53;10.70;75.90
23560;DHT22;11958;50.836;4.438;2024-01-30T15:15:38;10.30;76.00
23560;DHT22;11958;50.836;4.438;2024-01-30T15:21:26;10.20;77.80
23560;DHT22;11958;50.836;4.438;2024-01-30T15:23:52;10.20;77.00
23560;DHT22;11958;50.836;4.438;2024-01-30T15:26:17;10.00;77.70
23560;DHT22;11958;50.836;4.438;2024-01-30T15:28:43;9.90;78.20
23560;DHT22;11958;50.836;4.438;2024-01-30T15:31:08;10.00;78.40
23560;DHT22;11958;50.836;4.438;2024-01-30T15:42:44;10.00;77.50
23560;DHT22;11958;50.836;4.438;2024-01-30T15:48:40;10.00;75.80
23560;DHT22;11958;50.836;4.438;2024-01-30T15:54:51;9.80;76.30
23560;DHT22;11958;50.836;4.438;2024-01-30T16:00:41;9.90;76.70
23560;DHT22;11958;50.836;4.438;2024-01-30T16:19:08;10.00;76.20
23560;DHT22;11958;50.836;4.438;2024-01-30T16:25:04;10.00;77.00
23560;DHT22;11958;50.836;4.438;2024-01-30T16:31:09;9.90;77.30
23560;DHT22;11958;50.836;4.438;2024-01-30T16:56:36;9.50;80.10
23560;DHT22;11958;50.836;4.438;2024-01-30T17:05:33;9.50;82.60
23560;DHT22;11958;50.836;4.438;2024-01-30T17:07:59;9.20;83.70
23560;DHT22;11958;50.836;4.438;2024-01-30T17:10:26;9.20;84.20
23560;DHT22;11958;50.836;4.438;2024-01-30T17:12:54;9.30;84.70
23560;DHT22;11958;50.836;4.438;2024-01-30T17:15:20;9.30;85.00
23560;DHT22;11958;50.836;4.438;2024-01-30T17:17:46;9.30;85.20
23560;DHT22;11958;50.836;4.438;2024-01-30T17:20:12;9.10;85.60
23560;DHT22;11958;50.836;4.438;2024-01-30T17:22:38;9.20;85.70
23560;DHT22;11958;50.836;4.438;2024-01-30T17:25:07;9.30;85.60
23560;DHT22;11958;50.836;4.438;2024-01-30T17:27:33;9.30;86.00
23560;DHT22;11958;50.836;4.438;2024-01-30T17:29:59;9.30;85.90
23560;DHT22;11958;50.836;4.438;2024-01-30T17:32:24;9.20;85.70
23560;DHT22;11958;50.836;4.438;2024-01-30T17:34:53;9.30;86.10
23560;DHT22;11958;50.836;4.438;2024-01-30T17:37:18;9.30;86.30
23560;DHT22;11958;50.836;4.438;2024-01-30T17:39:44;9.30;85.70
23560;DHT22;11958;50.836;4.438;2024-01-30T17:42:11;9.10;86.20
23560;DHT22;11958;50.836;4.438;2024-01-30T17:44:37;9.20;86.40
23560;DHT22;11958;50.836;4.438;2024-01-30T17:47:06;9.00;86.40
23560;DHT22;11958;50.836;4.438;2024-01-30T17:49:33;8.90;87.40
23560;DHT22;11958;50.836;4.438;2024-01-30T17:54:41;9.10;87.90
23560;DHT22;11958;50.836;4.438;2024-01-30T17:57:19;9.10;88.30
23560;DHT22;11958;50.836;4.438;2024-01-30T18:02:53;9.00;87.90
23560;DHT22;11958;50.836;4.438;2024-01-30T18:05:33;8.90;87.80
23560;DHT22;11958;50.836;4.438;2024-01-30T18:08:01;9.10;87.30
23560;DHT22;11958;50.836;4.438;2024-01-30T18:10:29;9.10;86.60
23560;DHT22;11958;50.836;4.438;2024-01-30T18:12:56;9.00;86.10
23560;DHT22;11958;50.836;4.438;2024-01-30T18:17:55;9.30;85.30
23560;DHT22;11958;50.836;4.438;2024-01-30T18:24:08;9.00;85.40
23560;DHT22;11958;50.836;4.438;2024-01-30T18:37:15;8.90;85.50
23560;DHT22;11958;50.836;4.438;2024-01-30T18:39:53;8.90;85.50
23560;DHT22;11958;50.836;4.438;2024-01-30T18:44:58;9.00;84.40
23560;DHT22;11958;50.836;4.438;2024-01-30T18:53:14;8.90;84.80
23560;DHT22;11958;50.836;4.438;2024-01-30T18:56:20;9.10;84.70
23560;DHT22;11958;50.836;4.438;2024-01-30T18:58:46;9.00;84.90
23560;DHT22;11958;50.836;4.438;2024-01-30T19:01:12;8.80;84.40
23560;DHT22;11958;50.836;4.438;2024-01-30T19:03:38;8.90;84.80
23560;DHT22;11958;50.836;4.438;2024-01-30T19:06:04;8.90;84.80
23560;DHT22;11958;50.836;4.438;2024-01-30T19:08:31;8.90;84.90
23560;DHT22;11958;50.836;4.438;2024-01-30T19:10:56;8.90;84.60
23560;DHT22;11958;50.836;4.438;2024-01-30T19:13:22;8.90;84.80
23560;DHT22;11958;50.836;4.438;2024-01-30T19:15:48;9.00;84.50
23560;DHT22;11958;50.836;4.438;2024-01-30T19:18:13;9.00;84.40
23560;DHT22;11958;50.836;4.438;2024-01-30T19:20:39;8.80;84.30
23560;DHT22;11958;50.836;4.438;2024-01-30T19:25:42;8.90;84.40
23560;DHT22;11958;50.836;4.438;2024-01-30T19:28:36;9.10;84.30
23560;DHT22;11958;50.836;4.438;2024-01-30T19:31:21;9.00;84.10
23560;DHT22;11958;50.836;4.438;2024-01-30T19:33:47;8.90;84.10
23560;DHT22;11958;50.836;4.438;2024-01-30T19:44:44;8.90;84.10
23560;DHT22;11958;50.836;4.438;2024-01-30T19:47:19;8.80;84.90
23560;DHT22;11958;50.836;4.438;2024-01-30T19:49:45;8.90;85.10
23560;DHT22;11958;50.836;4.438;2024-01-30T19:52:10;8.90;85.50
23560;DHT22;11958;50.836;4.438;2024-01-30T19:54:38;8.90;85.50
23560;DHT22;11958;50.836;4.438;2024-01-30T20:00:56;8.90;85.10
23560;DHT22;11958;50.836;4.438;2024-01-30T20:03:22;9.00;85.00
23560;DHT22;11958;50.836;4.438;2024-01-30T20:23:01;8.70;85.80
23560;DHT22;11958;50.836;4.438;2024-01-30T20:29:18;8.70;85.50
23560;DHT22;11958;50.836;4.438;2024-01-30T20:31:50;8.70;85.50
23560;DHT22;11958;50.836;4.438;2024-01-30T20:34:38;8.90;85.30
23560;DHT22;11958;50.836;4.438;2024-01-30T20:37:04;8.90;85.80
23560;DHT22;11958;50.836;4.438;2024-01-30T20:39:30;8.80;85.40
23560;DHT22;11958;50.836;4.438;2024-01-30T20:41:55;8.70;85.50
23560;DHT22;11958;50.836;4.438;2024-01-30T20:44:21;8.50;86.30
23560;DHT22;11958;50.836;4.438;2024-01-30T20:46:47;8.70;86.20
23560;DHT22;11958;50.836;4.438;2024-01-30T20:49:13;8.80;85.90
23560;DHT22;11958;50.836;4.438;2024-01-30T20:51:40;8.90;85.80
23560;DHT22;11958;50.836;4.438;2024-01-30T20:54:05;8.80;85.80
23560;DHT22;11958;50.836;4.438;2024-01-30T20:56:31;8.80;86.10
23560;DHT22;11958;50.836;4.438;2024-01-30T20:58:57;8.60;86.20
23560;DHT22;11958;50.836;4.438;2024-01-30T21:01:22;8.80;86.30
23560;DHT22;11958;50.836;4.438;2024-01-30T21:03:48;8.80;86.10
23560;DHT22;11958;50.836;4.438;2024-01-30T21:06:14;8.90;85.50
23560;DHT22;11958;50.836;4.438;2024-01-30T21:08:40;8.80;85.70
23560;DHT22;11958;50.836;4.438;2024-01-30T21:11:09;8.70;86.30
23560;DHT22;11958;50.836;4.438;2024-01-30T21:16:43;8.60;86.20
23560;DHT22;11958;50.836;4.438;2024-01-30T21:19:19;8.80;86.20